sensor_id;sensor_type;location;lat;lon;timestamp;P1;durP1;ratioP1;P2;durP2;ratioP2
18754;SDS011;35061;47.664;9.166;2022-12-20T00:01:28;54.83;;;22.62;;
18754;SDS011;35061;47.664;9.166;2022-12-20T00:03:58;85.15;;;24.95;;
18754;SDS011;35061;47.664;9.166;2022-12-20T00:06:28;61.08;;;24.30;;
18754;SDS011;35061;47.664;9.166;2022-12-20T00:08:57;69.18;;;24.42;;
18754;SDS011;35061;47.664;9.166;2022-12-20T00:11:27;65.15;;;22.42;;
18754;SDS011;35061;47.664;9.166;2022-12-20T00:13:56;60.88;;;21.27;;
18754;SDS011;35061;47.664;9.166;2022-12-20T00:16:27;60.08;;;22.62;;
18754;SDS011;35061;47.664;9.166;2022-12-20T00:18:57;47.60;;;21.42;;
18754;SDS011;35061;47.664;9.166;2022-12-20T00:21:26;49.08;;;23.27;;
18754;SDS011;35061;47.664;9.166;2022-12-20T00:23:55;51.22;;;22.80;;
18754;SDS011;35061;47.664;9.166;2022-12-20T00:26:25;57.42;;;24.35;;
18754;SDS011;35061;47.664;9.166;2022-12-20T00:28:55;59.97;;;24.45;;
18754;SDS011;35061;47.664;9.166;2022-12-20T00:31:23;43.47;;;20.20;;
18754;SDS011;35061;47.664;9.166;2022-12-20T00:33:53;45.67;;;22.87;;
18754;SDS011;35061;47.664;9.166;2022-12-20T00:36:23;83.68;;;24.58;;
18754;SDS011;35061;47.664;9.166;2022-12-20T00:38:53;65.22;;;25.58;;
18754;SDS011;35061;47.664;9.166;2022-12-20T00:41:25;67.35;;;23.90;;
18754;SDS011;35061;47.664;9.166;2022-12-20T00:43:55;53.00;;;22.27;;
18754;SDS011;35061;47.664;9.166;2022-12-20T00:46:23;51.47;;;21.73;;
18754;SDS011;35061;47.664;9.166;2022-12-20T00:48:52;50.42;;;24.30;;
18754;SDS011;35061;47.664;9.166;2022-12-20T00:51:23;49.42;;;24.55;;
18754;SDS011;35061;47.664;9.166;2022-12-20T00:53:52;42.53;;;21.37;;
18754;SDS011;35061;47.664;9.166;2022-12-20T00:56:20;44.67;;;21.65;;
18754;SDS011;35061;47.664;9.166;2022-12-20T00:58:51;51.15;;;23.58;;
18754;SDS011;35061;47.664;9.166;2022-12-20T01:01:24;40.53;;;21.10;;
18754;SDS011;35061;47.664;9.166;2022-12-20T01:03:54;52.50;;;23.85;;
18754;SDS011;35061;47.664;9.166;2022-12-20T01:06:22;49.33;;;23.23;;
18754;SDS011;35061;47.664;9.166;2022-12-20T01:08:52;55.72;;;22.30;;
18754;SDS011;35061;47.664;9.166;2022-12-20T01:11:21;42.62;;;20.95;;
18754;SDS011;35061;47.664;9.166;2022-12-20T01:13:52;43.25;;;22.27;;
18754;SDS011;35061;47.664;9.166;2022-12-20T01:16:26;63.75;;;22.60;;
18754;SDS011;35061;47.664;9.166;2022-12-20T01:18:56;76.20;;;22.85;;
18754;SDS011;35061;47.664;9.166;2022-12-20T01:21:24;50.05;;;21.17;;
18754;SDS011;35061;47.664;9.166;2022-12-20T01:23:53;55.90;;;22.15;;
18754;SDS011;35061;47.664;9.166;2022-12-20T01:26:23;52.40;;;21.45;;
18754;SDS011;35061;47.664;9.166;2022-12-20T01:28:53;43.10;;;18.92;;
18754;SDS011;35061;47.664;9.166;2022-12-20T01:31:22;50.58;;;20.92;;
18754;SDS011;35061;47.664;9.166;2022-12-20T01:33:50;49.10;;;22.42;;
18754;SDS011;35061;47.664;9.166;2022-12-20T01:36:20;32.08;;;18.40;;
18754;SDS011;35061;47.664;9.166;2022-12-20T01:38:55;41.30;;;21.27;;
18754;SDS011;35061;47.664;9.166;2022-12-20T01:41:27;37.70;;;20.40;;
18754;SDS011;35061;47.664;9.166;2022-12-20T01:43:58;31.20;;;18.20;;
18754;SDS011;35061;47.664;9.166;2022-12-20T01:46:28;33.72;;;19.33;;
18754;SDS011;35061;47.664;9.166;2022-12-20T01:51:49;31.08;;;18.70;;
18754;SDS011;35061;47.664;9.166;2022-12-20T01:54:20;33.75;;;19.60;;
18754;SDS011;35061;47.664;9.166;2022-12-20T01:56:54;34.97;;;19.27;;
18754;SDS011;35061;47.664;9.166;2022-12-20T01:59:25;40.85;;;20.02;;
18754;SDS011;35061;47.664;9.166;2022-12-20T02:01:58;33.95;;;18.98;;
18754;SDS011;35061;47.664;9.166;2022-12-20T02:04:29;45.03;;;22.25;;
18754;SDS011;35061;47.664;9.166;2022-12-20T02:06:56;34.20;;;20.23;;
18754;SDS011;35061;47.664;9.166;2022-12-20T02:09:25;36.38;;;17.95;;
18754;SDS011;35061;47.664;9.166;2022-12-20T02:12:07;54.38;;;21.65;;
18754;SDS011;35061;47.664;9.166;2022-12-20T02:17:44;76.57;;;26.42;;
18754;SDS011;35061;47.664;9.166;2022-12-20T02:23:31;58.80;;;20.58;;
18754;SDS011;35061;47.664;9.166;2022-12-20T02:29:20;56.63;;;22.77;;
18754;SDS011;35061;47.664;9.166;2022-12-20T02:31:56;48.92;;;21.30;;
18754;SDS011;35061;47.664;9.166;2022-12-20T02:34:32;44.50;;;20.70;;
18754;SDS011;35061;47.664;9.166;2022-12-20T02:37:03;47.30;;;21.40;;
18754;SDS011;35061;47.664;9.166;2022-12-20T02:39:32;46.50;;;19.85;;
18754;SDS011;35061;47.664;9.166;2022-12-20T02:42:04;41.63;;;20.50;;
18754;SDS011;35061;47.664;9.166;2022-12-20T02:44:38;41.60;;;21.33;;
18754;SDS011;35061;47.664;9.166;2022-12-20T02:47:30;44.67;;;20.08;;
18754;SDS011;35061;47.664;9.166;2022-12-20T02:50:20;47.90;;;22.33;;
18754;SDS011;35061;47.664;9.166;2022-12-20T02:52:53;44.42;;;22.40;;
18754;SDS011;35061;47.664;9.166;2022-12-20T02:55:23;41.13;;;21.10;;
18754;SDS011;35061;47.664;9.166;2022-12-20T02:57:59;54.88;;;22.98;;
18754;SDS011;35061;47.664;9.166;2022-12-20T03:00:43;51.50;;;20.30;;
18754;SDS011;35061;47.664;9.166;2022-12-20T03:03:13;41.55;;;21.25;;
18754;SDS011;35061;47.664;9.166;2022-12-20T03:05:52;51.42;;;19.70;;
18754;SDS011;35061;47.664;9.166;2022-12-20T03:08:22;58.55;;;20.10;;
18754;SDS011;35061;47.664;9.166;2022-12-20T03:10:51;52.03;;;22.58;;
18754;SDS011;35061;47.664;9.166;2022-12-20T03:13:21;64.57;;;22.15;;
18754;SDS011;35061;47.664;9.166;2022-12-20T03:15:50;55.47;;;22.15;;
18754;SDS011;35061;47.664;9.166;2022-12-20T03:18:18;50.47;;;21.60;;
18754;SDS011;35061;47.664;9.166;2022-12-20T03:20:45;68.30;;;21.83;;
18754;SDS011;35061;47.664;9.166;2022-12-20T03:23:13;68.22;;;21.80;;
18754;SDS011;35061;47.664;9.166;2022-12-20T03:25:41;47.90;;;20.17;;
18754;SDS011;35061;47.664;9.166;2022-12-20T03:28:09;62.92;;;21.37;;
18754;SDS011;35061;47.664;9.166;2022-12-20T03:30:37;49.15;;;20.33;;
18754;SDS011;35061;47.664;9.166;2022-12-20T03:33:05;70.65;;;21.10;;
18754;SDS011;35061;47.664;9.166;2022-12-20T03:35:33;60.78;;;22.80;;
18754;SDS011;35061;47.664;9.166;2022-12-20T03:38:01;46.97;;;20.52;;
18754;SDS011;35061;47.664;9.166;2022-12-20T03:40:29;52.40;;;22.48;;
18754;SDS011;35061;47.664;9.166;2022-12-20T03:42:57;37.72;;;20.17;;
18754;SDS011;35061;47.664;9.166;2022-12-20T03:45:24;58.35;;;23.38;;
18754;SDS011;35061;47.664;9.166;2022-12-20T03:47:52;64.07;;;22.60;;
18754;SDS011;35061;47.664;9.166;2022-12-20T03:50:20;41.33;;;18.55;;
18754;SDS011;35061;47.664;9.166;2022-12-20T03:52:48;56.50;;;21.70;;
18754;SDS011;35061;47.664;9.166;2022-12-20T03:55:16;64.45;;;22.92;;
18754;SDS011;35061;47.664;9.166;2022-12-20T03:57:44;63.60;;;21.00;;
18754;SDS011;35061;47.664;9.166;2022-12-20T04:00:11;47.58;;;19.80;;
18754;SDS011;35061;47.664;9.166;2022-12-20T04:02:40;56.15;;;21.85;;
18754;SDS011;35061;47.664;9.166;2022-12-20T04:05:08;51.95;;;22.15;;
18754;SDS011;35061;47.664;9.166;2022-12-20T04:07:36;55.72;;;21.60;;
18754;SDS011;35061;47.664;9.166;2022-12-20T04:10:04;62.08;;;22.00;;
18754;SDS011;35061;47.664;9.166;2022-12-20T04:12:32;49.80;;;21.80;;
18754;SDS011;35061;47.664;9.166;2022-12-20T04:14:59;51.25;;;21.12;;
18754;SDS011;35061;47.664;9.166;2022-12-20T04:17:27;71.82;;;22.50;;
18754;SDS011;35061;47.664;9.166;2022-12-20T04:19:55;99.15;;;25.70;;
18754;SDS011;35061;47.664;9.166;2022-12-20T04:22:23;66.05;;;19.62;;
18754;SDS011;35061;47.664;9.166;2022-12-20T04:24:50;65.10;;;23.05;;
18754;SDS011;35061;47.664;9.166;2022-12-20T04:27:18;91.25;;;24.00;;
18754;SDS011;35061;47.664;9.166;2022-12-20T04:29:46;55.53;;;19.55;;
18754;SDS011;35061;47.664;9.166;2022-12-20T04:32:14;59.60;;;22.83;;
18754;SDS011;35061;47.664;9.166;2022-12-20T04:34:42;79.97;;;23.10;;
18754;SDS011;35061;47.664;9.166;2022-12-20T04:37:09;67.12;;;22.37;;
18754;SDS011;35061;47.664;9.166;2022-12-20T04:39:37;49.33;;;20.30;;
18754;SDS011;35061;47.664;9.166;2022-12-20T04:42:05;63.60;;;22.15;;
18754;SDS011;35061;47.664;9.166;2022-12-20T04:44:32;47.38;;;18.98;;
18754;SDS011;35061;47.664;9.166;2022-12-20T04:47:00;58.17;;;22.00;;
18754;SDS011;35061;47.664;9.166;2022-12-20T04:49:28;52.05;;;20.45;;
18754;SDS011;35061;47.664;9.166;2022-12-20T04:51:56;53.67;;;22.50;;
18754;SDS011;35061;47.664;9.166;2022-12-20T04:54:43;76.80;;;24.52;;
18754;SDS011;35061;47.664;9.166;2022-12-20T04:57:12;48.63;;;22.87;;
18754;SDS011;35061;47.664;9.166;2022-12-20T04:59:40;48.17;;;21.83;;
18754;SDS011;35061;47.664;9.166;2022-12-20T05:02:08;38.05;;;19.90;;
18754;SDS011;35061;47.664;9.166;2022-12-20T05:04:36;43.90;;;21.80;;
18754;SDS011;35061;47.664;9.166;2022-12-20T05:07:04;44.15;;;21.92;;
18754;SDS011;35061;47.664;9.166;2022-12-20T05:09:31;39.13;;;20.05;;
18754;SDS011;35061;47.664;9.166;2022-12-20T05:11:59;43.63;;;20.95;;
18754;SDS011;35061;47.664;9.166;2022-12-20T05:14:27;42.15;;;21.65;;
18754;SDS011;35061;47.664;9.166;2022-12-20T05:16:54;46.45;;;23.35;;
18754;SDS011;35061;47.664;9.166;2022-12-20T05:19:22;46.70;;;22.62;;
18754;SDS011;35061;47.664;9.166;2022-12-20T05:21:50;42.38;;;21.45;;
18754;SDS011;35061;47.664;9.166;2022-12-20T05:24:36;44.47;;;23.10;;
18754;SDS011;35061;47.664;9.166;2022-12-20T05:27:22;48.08;;;22.85;;
18754;SDS011;35061;47.664;9.166;2022-12-20T05:29:50;44.90;;;21.42;;
18754;SDS011;35061;47.664;9.166;2022-12-20T05:32:18;41.65;;;22.02;;
18754;SDS011;35061;47.664;9.166;2022-12-20T05:34:45;42.58;;;22.87;;
18754;SDS011;35061;47.664;9.166;2022-12-20T05:37:13;35.22;;;19.27;;
18754;SDS011;35061;47.664;9.166;2022-12-20T05:39:41;48.33;;;23.65;;
18754;SDS011;35061;47.664;9.166;2022-12-20T05:42:08;37.47;;;20.75;;
18754;SDS011;35061;47.664;9.166;2022-12-20T05:44:36;42.00;;;20.55;;
18754;SDS011;35061;47.664;9.166;2022-12-20T05:47:04;40.58;;;20.95;;
18754;SDS011;35061;47.664;9.166;2022-12-20T05:49:32;35.05;;;19.85;;
18754;SDS011;35061;47.664;9.166;2022-12-20T05:52:01;46.42;;;22.37;;
18754;SDS011;35061;47.664;9.166;2022-12-20T05:54:29;39.92;;;19.75;;
18754;SDS011;35061;47.664;9.166;2022-12-20T05:56:57;47.00;;;23.17;;
18754;SDS011;35061;47.664;9.166;2022-12-20T05:59:25;47.08;;;21.37;;
18754;SDS011;35061;47.664;9.166;2022-12-20T06:01:52;54.80;;;24.23;;
18754;SDS011;35061;47.664;9.166;2022-12-20T06:04:21;42.40;;;22.62;;
18754;SDS011;35061;47.664;9.166;2022-12-20T06:06:49;50.88;;;23.55;;
18754;SDS011;35061;47.664;9.166;2022-12-20T06:09:17;48.08;;;22.13;;
18754;SDS011;35061;47.664;9.166;2022-12-20T06:11:44;46.53;;;23.55;;
18754;SDS011;35061;47.664;9.166;2022-12-20T06:14:13;46.25;;;22.20;;
18754;SDS011;35061;47.664;9.166;2022-12-20T06:16:41;51.13;;;20.62;;
18754;SDS011;35061;47.664;9.166;2022-12-20T06:19:09;59.03;;;21.67;;
18754;SDS011;35061;47.664;9.166;2022-12-20T06:21:46;53.05;;;23.00;;
18754;SDS011;35061;47.664;9.166;2022-12-20T06:24:14;80.78;;;26.52;;
18754;SDS011;35061;47.664;9.166;2022-12-20T06:26:41;68.45;;;25.48;;
18754;SDS011;35061;47.664;9.166;2022-12-20T06:29:09;60.97;;;25.75;;
18754;SDS011;35061;47.664;9.166;2022-12-20T06:31:40;57.00;;;23.42;;
18754;SDS011;35061;47.664;9.166;2022-12-20T06:34:08;101.22;;;28.40;;
18754;SDS011;35061;47.664;9.166;2022-12-20T06:36:36;68.32;;;26.73;;
18754;SDS011;35061;47.664;9.166;2022-12-20T06:39:04;64.68;;;24.48;;
18754;SDS011;35061;47.664;9.166;2022-12-20T06:41:35;95.30;;;28.30;;
18754;SDS011;35061;47.664;9.166;2022-12-20T06:44:03;58.85;;;24.77;;
18754;SDS011;35061;47.664;9.166;2022-12-20T06:46:31;55.35;;;24.48;;
18754;SDS011;35061;47.664;9.166;2022-12-20T06:48:59;48.70;;;23.52;;
18754;SDS011;35061;47.664;9.166;2022-12-20T06:51:27;55.83;;;25.55;;
18754;SDS011;35061;47.664;9.166;2022-12-20T06:53:55;55.03;;;26.08;;
18754;SDS011;35061;47.664;9.166;2022-12-20T06:56:22;62.65;;;26.73;;
18754;SDS011;35061;47.664;9.166;2022-12-20T06:58:50;55.92;;;24.52;;
18754;SDS011;35061;47.664;9.166;2022-12-20T07:01:21;47.10;;;23.20;;
18754;SDS011;35061;47.664;9.166;2022-12-20T07:03:48;55.38;;;25.15;;
18754;SDS011;35061;47.664;9.166;2022-12-20T07:06:17;61.78;;;27.30;;
18754;SDS011;35061;47.664;9.166;2022-12-20T07:08:44;59.33;;;24.75;;
18754;SDS011;35061;47.664;9.166;2022-12-20T07:11:12;50.53;;;25.02;;
18754;SDS011;35061;47.664;9.166;2022-12-20T07:13:40;53.83;;;24.83;;
18754;SDS011;35061;47.664;9.166;2022-12-20T07:16:08;47.08;;;23.52;;
18754;SDS011;35061;47.664;9.166;2022-12-20T07:18:36;61.53;;;25.98;;
18754;SDS011;35061;47.664;9.166;2022-12-20T07:21:04;60.33;;;26.12;;
18754;SDS011;35061;47.664;9.166;2022-12-20T07:23:32;59.50;;;25.77;;
18754;SDS011;35061;47.664;9.166;2022-12-20T07:26:00;48.55;;;24.20;;
18754;SDS011;35061;47.664;9.166;2022-12-20T07:28:30;61.30;;;27.85;;
18754;SDS011;35061;47.664;9.166;2022-12-20T07:31:01;50.70;;;24.87;;
18754;SDS011;35061;47.664;9.166;2022-12-20T07:33:29;50.05;;;24.67;;
18754;SDS011;35061;47.664;9.166;2022-12-20T07:36:04;53.55;;;28.23;;
18754;SDS011;35061;47.664;9.166;2022-12-20T07:38:34;45.35;;;22.73;;
18754;SDS011;35061;47.664;9.166;2022-12-20T07:41:05;41.95;;;21.90;;
18754;SDS011;35061;47.664;9.166;2022-12-20T07:43:37;43.45;;;22.98;;
18754;SDS011;35061;47.664;9.166;2022-12-20T07:46:06;54.63;;;23.75;;
18754;SDS011;35061;47.664;9.166;2022-12-20T07:48:34;43.05;;;20.77;;
18754;SDS011;35061;47.664;9.166;2022-12-20T07:51:09;44.30;;;21.55;;
18754;SDS011;35061;47.664;9.166;2022-12-20T07:53:42;39.75;;;20.95;;
18754;SDS011;35061;47.664;9.166;2022-12-20T07:56:14;33.33;;;19.52;;
18754;SDS011;35061;47.664;9.166;2022-12-20T07:58:44;40.80;;;22.55;;
18754;SDS011;35061;47.664;9.166;2022-12-20T08:01:12;36.78;;;20.83;;
18754;SDS011;35061;47.664;9.166;2022-12-20T08:03:45;46.17;;;21.87;;
18754;SDS011;35061;47.664;9.166;2022-12-20T08:06:16;35.38;;;18.52;;
18754;SDS011;35061;47.664;9.166;2022-12-20T08:08:50;39.97;;;19.58;;
18754;SDS011;35061;47.664;9.166;2022-12-20T08:11:21;38.80;;;21.30;;
18754;SDS011;35061;47.664;9.166;2022-12-20T08:13:50;33.05;;;19.25;;
18754;SDS011;35061;47.664;9.166;2022-12-20T08:16:23;39.75;;;20.83;;
18754;SDS011;35061;47.664;9.166;2022-12-20T08:18:52;40.05;;;21.77;;
18754;SDS011;35061;47.664;9.166;2022-12-20T08:21:19;42.13;;;20.40;;
18754;SDS011;35061;47.664;9.166;2022-12-20T08:23:47;39.67;;;20.92;;
18754;SDS011;35061;47.664;9.166;2022-12-20T08:26:15;41.00;;;20.95;;
18754;SDS011;35061;47.664;9.166;2022-12-20T08:28:43;44.95;;;21.50;;
18754;SDS011;35061;47.664;9.166;2022-12-20T08:31:11;41.05;;;20.92;;
18754;SDS011;35061;47.664;9.166;2022-12-20T08:33:40;44.90;;;23.35;;
18754;SDS011;35061;47.664;9.166;2022-12-20T08:36:09;43.75;;;22.25;;
18754;SDS011;35061;47.664;9.166;2022-12-20T08:38:39;47.85;;;23.87;;
18754;SDS011;35061;47.664;9.166;2022-12-20T08:41:08;39.90;;;21.35;;
18754;SDS011;35061;47.664;9.166;2022-12-20T08:43:40;50.83;;;21.95;;
18754;SDS011;35061;47.664;9.166;2022-12-20T08:46:09;39.40;;;21.45;;
18754;SDS011;35061;47.664;9.166;2022-12-20T08:48:38;37.58;;;21.17;;
18754;SDS011;35061;47.664;9.166;2022-12-20T08:51:07;43.50;;;22.83;;
18754;SDS011;35061;47.664;9.166;2022-12-20T08:53:37;42.90;;;22.13;;
18754;SDS011;35061;47.664;9.166;2022-12-20T08:56:09;47.55;;;23.12;;
18754;SDS011;35061;47.664;9.166;2022-12-20T08:58:42;46.67;;;24.25;;
18754;SDS011;35061;47.664;9.166;2022-12-20T09:01:11;44.67;;;22.75;;
18754;SDS011;35061;47.664;9.166;2022-12-20T09:03:41;43.95;;;24.05;;
18754;SDS011;35061;47.664;9.166;2022-12-20T09:06:11;51.95;;;24.63;;
18754;SDS011;35061;47.664;9.166;2022-12-20T09:08:42;50.58;;;26.95;;
18754;SDS011;35061;47.664;9.166;2022-12-20T09:11:13;46.33;;;22.45;;
18754;SDS011;35061;47.664;9.166;2022-12-20T09:13:43;44.55;;;22.20;;
18754;SDS011;35061;47.664;9.166;2022-12-20T09:16:14;43.95;;;22.77;;
18754;SDS011;35061;47.664;9.166;2022-12-20T09:18:46;44.28;;;23.08;;
18754;SDS011;35061;47.664;9.166;2022-12-20T09:21:15;52.40;;;25.70;;
18754;SDS011;35061;47.664;9.166;2022-12-20T09:23:43;44.20;;;22.45;;
18754;SDS011;35061;47.664;9.166;2022-12-20T09:26:12;42.70;;;22.17;;
18754;SDS011;35061;47.664;9.166;2022-12-20T09:28:42;51.58;;;24.95;;
18754;SDS011;35061;47.664;9.166;2022-12-20T09:31:11;46.37;;;25.45;;
18754;SDS011;35061;47.664;9.166;2022-12-20T09:33:41;48.60;;;25.17;;
18754;SDS011;35061;47.664;9.166;2022-12-20T09:36:12;47.85;;;23.77;;
18754;SDS011;35061;47.664;9.166;2022-12-20T09:38:42;50.85;;;23.20;;
18754;SDS011;35061;47.664;9.166;2022-12-20T09:41:22;49.97;;;25.62;;
18754;SDS011;35061;47.664;9.166;2022-12-20T09:43:51;52.45;;;25.37;;
18754;SDS011;35061;47.664;9.166;2022-12-20T09:46:19;48.33;;;24.20;;
18754;SDS011;35061;47.664;9.166;2022-12-20T09:48:50;45.78;;;23.27;;
18754;SDS011;35061;47.664;9.166;2022-12-20T09:56:26;55.70;;;26.58;;
18754;SDS011;35061;47.664;9.166;2022-12-20T09:59:02;43.75;;;22.27;;
18754;SDS011;35061;47.664;9.166;2022-12-20T10:01:33;51.58;;;24.75;;
18754;SDS011;35061;47.664;9.166;2022-12-20T10:04:06;51.25;;;24.75;;
18754;SDS011;35061;47.664;9.166;2022-12-20T10:09:42;55.75;;;25.35;;
18754;SDS011;35061;47.664;9.166;2022-12-20T10:17:38;52.62;;;23.60;;
18754;SDS011;35061;47.664;9.166;2022-12-20T10:20:18;60.75;;;29.17;;
18754;SDS011;35061;47.664;9.166;2022-12-20T10:23:16;44.85;;;24.20;;
18754;SDS011;35061;47.664;9.166;2022-12-20T10:25:58;44.40;;;22.40;;
18754;SDS011;35061;47.664;9.166;2022-12-20T10:28:28;46.85;;;23.83;;
18754;SDS011;35061;47.664;9.166;2022-12-20T10:31:01;43.90;;;22.55;;
18754;SDS011;35061;47.664;9.166;2022-12-20T10:33:33;40.78;;;21.75;;
18754;SDS011;35061;47.664;9.166;2022-12-20T10:38:50;44.70;;;22.83;;
18754;SDS011;35061;47.664;9.166;2022-12-20T10:41:23;55.30;;;25.60;;
18754;SDS011;35061;47.664;9.166;2022-12-20T10:44:01;43.60;;;23.10;;
18754;SDS011;35061;47.664;9.166;2022-12-20T10:46:40;41.63;;;23.38;;
18754;SDS011;35061;47.664;9.166;2022-12-20T10:49:22;40.92;;;20.98;;
18754;SDS011;35061;47.664;9.166;2022-12-20T10:52:10;35.58;;;19.73;;
18754;SDS011;35061;47.664;9.166;2022-12-20T10:54:40;32.35;;;19.50;;
18754;SDS011;35061;47.664;9.166;2022-12-20T10:57:20;37.33;;;20.17;;
18754;SDS011;35061;47.664;9.166;2022-12-20T10:59:54;38.13;;;19.65;;
18754;SDS011;35061;47.664;9.166;2022-12-20T11:02:31;36.42;;;19.20;;
18754;SDS011;35061;47.664;9.166;2022-12-20T11:07:39;33.85;;;19.45;;
18754;SDS011;35061;47.664;9.166;2022-12-20T11:13:43;33.00;;;18.90;;
18754;SDS011;35061;47.664;9.166;2022-12-20T11:16:22;32.47;;;19.17;;
18754;SDS011;35061;47.664;9.166;2022-12-20T11:22:02;29.55;;;18.35;;
18754;SDS011;35061;47.664;9.166;2022-12-20T11:30:19;29.15;;;18.02;;
18754;SDS011;35061;47.664;9.166;2022-12-20T11:32:59;33.67;;;19.02;;
18754;SDS011;35061;47.664;9.166;2022-12-20T11:36:12;40.50;;;24.73;;
18754;SDS011;35061;47.664;9.166;2022-12-20T11:39:52;38.30;;;20.55;;
18754;SDS011;35061;47.664;9.166;2022-12-20T11:44:52;36.30;;;19.60;;
18754;SDS011;35061;47.664;9.166;2022-12-20T11:53:39;33.78;;;19.12;;
18754;SDS011;35061;47.664;9.166;2022-12-20T11:56:18;38.53;;;19.75;;
18754;SDS011;35061;47.664;9.166;2022-12-20T11:58:55;36.17;;;19.58;;
18754;SDS011;35061;47.664;9.166;2022-12-20T12:01:37;43.58;;;22.90;;
18754;SDS011;35061;47.664;9.166;2022-12-20T12:04:11;43.40;;;22.65;;
18754;SDS011;35061;47.664;9.166;2022-12-20T12:06:45;36.80;;;21.08;;
18754;SDS011;35061;47.664;9.166;2022-12-20T12:09:32;35.17;;;19.25;;
18754;SDS011;35061;47.664;9.166;2022-12-20T12:12:15;36.13;;;19.30;;
18754;SDS011;35061;47.664;9.166;2022-12-20T12:14:57;40.83;;;21.83;;
18754;SDS011;35061;47.664;9.166;2022-12-20T12:17:38;34.50;;;21.15;;
18754;SDS011;35061;47.664;9.166;2022-12-20T12:20:18;35.78;;;20.40;;
18754;SDS011;35061;47.664;9.166;2022-12-20T12:22:50;39.30;;;23.65;;
18754;SDS011;35061;47.664;9.166;2022-12-20T12:25:22;43.65;;;21.30;;
18754;SDS011;35061;47.664;9.166;2022-12-20T12:27:50;35.50;;;19.95;;
18754;SDS011;35061;47.664;9.166;2022-12-20T12:30:18;39.63;;;20.65;;
18754;SDS011;35061;47.664;9.166;2022-12-20T12:32:53;39.25;;;22.25;;
18754;SDS011;35061;47.664;9.166;2022-12-20T12:35:46;39.17;;;21.40;;
18754;SDS011;35061;47.664;9.166;2022-12-20T12:39:05;35.70;;;20.20;;
18754;SDS011;35061;47.664;9.166;2022-12-20T12:44:30;37.60;;;20.98;;
18754;SDS011;35061;47.664;9.166;2022-12-20T12:50:35;33.25;;;20.65;;
18754;SDS011;35061;47.664;9.166;2022-12-20T12:53:13;38.35;;;21.27;;
18754;SDS011;35061;47.664;9.166;2022-12-20T13:01:09;35.63;;;21.40;;
18754;SDS011;35061;47.664;9.166;2022-12-20T13:19:51;34.03;;;19.77;;
18754;SDS011;35061;47.664;9.166;2022-12-20T13:22:24;35.53;;;19.40;;
18754;SDS011;35061;47.664;9.166;2022-12-20T13:24:56;35.08;;;20.77;;
18754;SDS011;35061;47.664;9.166;2022-12-20T13:27:35;35.95;;;21.80;;
18754;SDS011;35061;47.664;9.166;2022-12-20T13:37:55;34.08;;;19.95;;
18754;SDS011;35061;47.664;9.166;2022-12-20T13:45:50;32.28;;;19.40;;
18754;SDS011;35061;47.664;9.166;2022-12-20T13:48:35;32.08;;;18.98;;
18754;SDS011;35061;47.664;9.166;2022-12-20T13:51:16;34.97;;;20.27;;
18754;SDS011;35061;47.664;9.166;2022-12-20T13:53:56;32.35;;;19.23;;
18754;SDS011;35061;47.664;9.166;2022-12-20T13:56:34;32.97;;;19.87;;
18754;SDS011;35061;47.664;9.166;2022-12-20T13:59:06;32.72;;;19.08;;
18754;SDS011;35061;47.664;9.166;2022-12-20T14:01:46;30.50;;;18.95;;
18754;SDS011;35061;47.664;9.166;2022-12-20T14:04:16;31.90;;;18.08;;
18754;SDS011;35061;47.664;9.166;2022-12-20T14:06:55;30.52;;;18.98;;
18754;SDS011;35061;47.664;9.166;2022-12-20T14:09:33;28.33;;;18.10;;
18754;SDS011;35061;47.664;9.166;2022-12-20T14:12:04;31.27;;;18.10;;
18754;SDS011;35061;47.664;9.166;2022-12-20T14:14:51;30.60;;;18.10;;
18754;SDS011;35061;47.664;9.166;2022-12-20T14:17:26;30.27;;;19.30;;
18754;SDS011;35061;47.664;9.166;2022-12-20T14:20:04;34.17;;;19.33;;
18754;SDS011;35061;47.664;9.166;2022-12-20T14:22:41;33.85;;;20.08;;
18754;SDS011;35061;47.664;9.166;2022-12-20T14:25:31;32.72;;;19.92;;
18754;SDS011;35061;47.664;9.166;2022-12-20T14:28:03;31.80;;;18.77;;
18754;SDS011;35061;47.664;9.166;2022-12-20T14:30:40;34.60;;;18.92;;
18754;SDS011;35061;47.664;9.166;2022-12-20T14:33:16;32.80;;;20.62;;
18754;SDS011;35061;47.664;9.166;2022-12-20T14:35:51;29.87;;;18.73;;
18754;SDS011;35061;47.664;9.166;2022-12-20T14:38:20;36.33;;;18.90;;
18754;SDS011;35061;47.664;9.166;2022-12-20T14:40:57;33.33;;;20.40;;
18754;SDS011;35061;47.664;9.166;2022-12-20T14:43:26;34.42;;;20.40;;
18754;SDS011;35061;47.664;9.166;2022-12-20T14:46:05;31.42;;;18.12;;
18754;SDS011;35061;47.664;9.166;2022-12-20T14:48:40;28.98;;;17.67;;
18754;SDS011;35061;47.664;9.166;2022-12-20T14:51:08;29.25;;;17.23;;
18754;SDS011;35061;47.664;9.166;2022-12-20T14:53:36;29.45;;;17.45;;
18754;SDS011;35061;47.664;9.166;2022-12-20T14:56:12;27.05;;;17.35;;
18754;SDS011;35061;47.664;9.166;2022-12-20T14:58:42;27.58;;;16.67;;
18754;SDS011;35061;47.664;9.166;2022-12-20T15:01:20;23.98;;;15.45;;
18754;SDS011;35061;47.664;9.166;2022-12-20T15:03:55;22.67;;;15.93;;
18754;SDS011;35061;47.664;9.166;2022-12-20T15:06:38;25.85;;;16.02;;
18754;SDS011;35061;47.664;9.166;2022-12-20T15:09:09;28.65;;;17.12;;
18754;SDS011;35061;47.664;9.166;2022-12-20T15:11:37;25.40;;;16.73;;
18754;SDS011;35061;47.664;9.166;2022-12-20T15:14:20;27.20;;;16.83;;
18754;SDS011;35061;47.664;9.166;2022-12-20T15:17:00;26.33;;;16.17;;
18754;SDS011;35061;47.664;9.166;2022-12-20T15:19:29;25.10;;;16.00;;
18754;SDS011;35061;47.664;9.166;2022-12-20T15:22:04;27.58;;;16.42;;
18754;SDS011;35061;47.664;9.166;2022-12-20T15:24:32;22.42;;;15.43;;
18754;SDS011;35061;47.664;9.166;2022-12-20T15:27:00;22.23;;;14.90;;
18754;SDS011;35061;47.664;9.166;2022-12-20T15:29:27;23.77;;;16.67;;
18754;SDS011;35061;47.664;9.166;2022-12-20T15:32:03;24.50;;;16.37;;
18754;SDS011;35061;47.664;9.166;2022-12-20T15:34:34;23.77;;;16.55;;
18754;SDS011;35061;47.664;9.166;2022-12-20T15:37:04;24.48;;;16.08;;
18754;SDS011;35061;47.664;9.166;2022-12-20T15:39:37;24.92;;;15.05;;
18754;SDS011;35061;47.664;9.166;2022-12-20T15:42:05;25.08;;;14.90;;
18754;SDS011;35061;47.664;9.166;2022-12-20T15:44:33;26.20;;;16.05;;
18754;SDS011;35061;47.664;9.166;2022-12-20T15:47:03;29.50;;;16.52;;
18754;SDS011;35061;47.664;9.166;2022-12-20T15:49:31;24.37;;;15.30;;
18754;SDS011;35061;47.664;9.166;2022-12-20T15:51:59;25.33;;;16.10;;
18754;SDS011;35061;47.664;9.166;2022-12-20T15:57:00;26.02;;;16.45;;
18754;SDS011;35061;47.664;9.166;2022-12-20T15:59:30;24.25;;;15.43;;
18754;SDS011;35061;47.664;9.166;2022-12-20T16:02:20;25.75;;;16.90;;
18754;SDS011;35061;47.664;9.166;2022-12-20T16:04:50;24.80;;;15.88;;
18754;SDS011;35061;47.664;9.166;2022-12-20T16:07:19;26.50;;;17.02;;
18754;SDS011;35061;47.664;9.166;2022-12-20T16:09:48;24.05;;;16.08;;
18754;SDS011;35061;47.664;9.166;2022-12-20T16:12:50;23.48;;;14.95;;
18754;SDS011;35061;47.664;9.166;2022-12-20T16:15:20;20.95;;;15.60;;
18754;SDS011;35061;47.664;9.166;2022-12-20T16:17:48;21.00;;;14.82;;
18754;SDS011;35061;47.664;9.166;2022-12-20T16:20:16;23.85;;;16.37;;
18754;SDS011;35061;47.664;9.166;2022-12-20T16:22:44;20.35;;;15.40;;
18754;SDS011;35061;47.664;9.166;2022-12-20T16:25:29;25.95;;;17.23;;